createdAt,value
2022-09-13T00:02:15.928Z,6.10
2022-09-13T00:04:43.603Z,5.53
2022-09-13T00:07:11.265Z,5.68
2022-09-13T00:09:38.921Z,5.90
2022-09-13T00:12:06.773Z,6.70
2022-09-13T00:14:34.466Z,6.32
2022-09-13T00:17:03.456Z,6.13
2022-09-13T00:19:31.040Z,6.20
2022-09-13T00:21:58.679Z,6.00
2022-09-13T00:24:26.287Z,6.32
2022-09-13T00:26:53.894Z,6.88
2022-09-13T00:29:21.567Z,6.72
2022-09-13T00:31:49.375Z,7.05
2022-09-13T00:34:18.411Z,6.20
2022-09-13T00:36:46.258Z,6.88
2022-09-13T00:39:13.965Z,7.05
2022-09-13T00:41:41.799Z,6.75
2022-09-13T00:44:42.645Z,6.53
2022-09-13T00:47:12.718Z,6.60
2022-09-13T00:49:43.058Z,7.28
2022-09-13T00:52:15.210Z,7.53
2022-09-13T00:54:46.994Z,7.45
2022-09-13T00:57:17.589Z,6.95
2022-09-13T00:59:52.174Z,7.22
2022-09-13T01:02:20.490Z,7.28
2022-09-13T01:04:50.078Z,7.55
2022-09-13T01:07:19.150Z,6.97
2022-09-13T01:09:50.230Z,7.60
2022-09-13T01:12:31.862Z,6.88
2022-09-13T01:15:01.558Z,7.25
2022-09-13T01:17:31.153Z,7.93
2022-09-13T01:20:01.290Z,7.53
2022-09-13T01:23:19.757Z,8.18
2022-09-13T01:26:18.529Z,7.80
2022-09-13T01:29:16.252Z,8.15
2022-09-13T01:31:53.821Z,8.52
2022-09-13T01:34:33.812Z,8.82
2022-09-13T01:37:38.388Z,7.90
2022-09-13T01:40:17.490Z,8.68
2022-09-13T01:43:05.417Z,9.05
2022-09-13T01:45:45.146Z,8.80
2022-09-13T01:48:20.451Z,8.10
2022-09-13T01:50:55.641Z,8.68
2022-09-13T01:53:31.706Z,7.78
2022-09-13T01:56:05.485Z,8.60
2022-09-13T01:58:41.473Z,8.65
2022-09-13T02:01:15.255Z,8.52
2022-09-13T02:03:49.684Z,8.98
2022-09-13T02:06:22.158Z,8.68
2022-09-13T02:11:20.876Z,8.35
2022-09-13T02:13:53.053Z,8.48
2022-09-13T02:16:28.673Z,8.57
2022-09-13T02:19:00.570Z,7.97
2022-09-13T02:21:31.071Z,8.70
2022-09-13T02:24:03.161Z,7.05
2022-09-13T02:26:32.683Z,8.00
2022-09-13T02:29:06.716Z,7.50
2022-09-13T02:31:38.770Z,7.40
2022-09-13T02:34:13.699Z,8.10
2022-09-13T02:36:44.003Z,7.38
2022-09-13T02:39:15.927Z,7.78
2022-09-13T02:41:50.196Z,7.95
2022-09-13T02:44:26.525Z,7.65
2022-09-13T02:47:05.519Z,7.70
2022-09-13T02:49:45.891Z,7.70
2022-09-13T02:52:20.951Z,7.63
2022-09-13T02:54:55.650Z,7.72
2022-09-13T02:57:32.238Z,7.75
2022-09-13T03:00:00.449Z,7.93
2022-09-13T03:02:32.933Z,7.63
2022-09-13T03:05:02.712Z,7.82
2022-09-13T03:07:30.971Z,7.32
2022-09-13T03:10:05.526Z,8.10
2022-09-13T03:13:04.687Z,7.07
2022-09-13T03:15:46.436Z,7.13
2022-09-13T03:18:30.892Z,8.20
2022-09-13T03:21:08.940Z,7.80
2022-09-13T03:23:47.088Z,8.68
2022-09-13T03:26:28.001Z,9.15
2022-09-13T03:29:11.258Z,8.68
2022-09-13T03:31:49.698Z,8.02
2022-09-13T03:34:25.249Z,8.40
2022-09-13T03:36:59.598Z,9.15
2022-09-13T03:39:35.830Z,8.75
2022-09-13T03:42:08.401Z,25.27
2022-09-13T03:44:37.924Z,10.65
2022-09-13T03:47:07.497Z,13.15
2022-09-13T03:49:38.553Z,12.27
2022-09-13T03:52:08.455Z,10.93
2022-09-13T03:54:39.239Z,10.63
2022-09-13T03:57:11.321Z,10.90
2022-09-13T03:59:40.645Z,10.05
2022-09-13T04:02:11.967Z,10.32
2022-09-13T04:04:40.760Z,10.05
2022-09-13T04:07:10.993Z,9.50
2022-09-13T04:09:38.670Z,9.02
2022-09-13T04:12:07.240Z,9.43
2022-09-13T04:14:34.887Z,10.07
2022-09-13T04:17:02.821Z,9.50
2022-09-13T04:19:31.406Z,14.27
2022-09-13T04:21:59.219Z,11.38
2022-09-13T04:24:29.975Z,12.70
2022-09-13T04:26:58.099Z,10.93
2022-09-13T04:29:27.341Z,11.25
2022-09-13T04:31:56.137Z,10.48
2022-09-13T04:34:24.576Z,10.80
2022-09-13T04:36:54.590Z,10.45
2022-09-13T04:39:23.702Z,10.18
2022-09-13T04:41:54.764Z,33.22
2022-09-13T04:44:24.386Z,20.88
2022-09-13T04:46:52.586Z,27.15
2022-09-13T04:49:21.855Z,12.25
2022-09-13T04:51:49.603Z,11.98
2022-09-13T04:54:17.610Z,10.45
2022-09-13T04:56:45.693Z,10.40
2022-09-13T04:59:15.311Z,10.35
2022-09-13T05:01:43.245Z,10.77
2022-09-13T05:04:11.623Z,10.85
2022-09-13T05:06:39.451Z,10.90
2022-09-13T05:09:07.279Z,9.43
2022-09-13T05:11:34.980Z,10.48
2022-09-13T05:14:02.704Z,10.55
2022-09-13T05:16:33.585Z,10.35
2022-09-13T05:19:01.530Z,11.90
2022-09-13T05:21:30.191Z,11.27
2022-09-13T05:23:58.608Z,10.20
2022-09-13T05:26:29.328Z,12.30
2022-09-13T05:28:56.954Z,12.15
2022-09-13T05:31:26.243Z,11.77
2022-09-13T05:33:58.763Z,10.63
2022-09-13T05:39:06.871Z,9.80
2022-09-13T05:41:42.811Z,8.90
2022-09-13T05:44:13.311Z,8.52
2022-09-13T05:46:42.175Z,7.63
2022-09-13T05:49:13.636Z,7.00
2022-09-13T05:51:41.587Z,6.40
2022-09-13T05:54:09.541Z,6.22
2022-09-13T05:56:37.338Z,5.63
2022-09-13T05:59:05.006Z,5.40
2022-09-13T06:01:32.823Z,5.05
2022-09-13T06:04:01.148Z,4.90
2022-09-13T06:06:30.188Z,5.63
2022-09-13T06:08:58.717Z,5.35
2022-09-13T06:11:27.308Z,5.53
2022-09-13T06:13:54.985Z,5.40
2022-09-13T06:16:22.881Z,5.15
2022-09-13T06:18:50.877Z,5.18
2022-09-13T06:21:20.534Z,5.70
2022-09-13T06:23:51.818Z,5.35
2022-09-13T06:26:21.559Z,5.50
2022-09-13T06:28:50.498Z,7.72
2022-09-13T06:31:20.327Z,6.03
2022-09-13T06:33:48.224Z,7.90
2022-09-13T06:36:18.137Z,6.68
2022-09-13T06:38:46.743Z,6.53
2022-09-13T06:41:18.624Z,5.75
2022-09-13T06:43:46.462Z,5.88
2022-09-13T06:46:15.836Z,6.55
2022-09-13T06:48:45.184Z,6.53
2022-09-13T06:51:14.524Z,5.85
2022-09-13T06:53:43.030Z,5.63
2022-09-13T06:56:13.109Z,5.97
2022-09-13T06:58:44.401Z,5.90
2022-09-13T07:01:14.871Z,5.75
2022-09-13T07:03:45.231Z,6.10
2022-09-13T07:06:22.593Z,6.00
2022-09-13T07:08:52.154Z,6.10
2022-09-13T07:11:22.577Z,6.00
2022-09-13T07:13:53.269Z,5.63
2022-09-13T07:16:22.605Z,6.40
2022-09-13T07:18:52.521Z,5.82
2022-09-13T07:21:21.063Z,6.13
2022-09-13T07:23:49.653Z,5.85
2022-09-13T07:26:17.370Z,5.78
2022-09-13T07:28:46.884Z,5.97
2022-09-13T07:31:18.382Z,6.57
2022-09-13T07:33:46.348Z,6.67
2022-09-13T07:36:14.982Z,6.68
2022-09-13T07:38:45.271Z,6.63
2022-09-13T07:41:14.859Z,6.63
2022-09-13T07:43:42.810Z,7.25
2022-09-13T07:46:12.335Z,7.07
2022-09-13T07:48:43.887Z,6.82
2022-09-13T07:51:13.633Z,7.60
2022-09-13T07:53:43.040Z,6.97
2022-09-13T07:56:12.850Z,8.15
2022-09-13T07:58:42.810Z,8.20
2022-09-13T08:01:14.227Z,7.72
2022-09-13T08:03:43.776Z,8.10
2022-09-13T08:06:12.022Z,7.93
2022-09-13T08:08:39.649Z,8.13
2022-09-13T08:11:08.064Z,8.75
2022-09-13T08:13:35.727Z,8.48
2022-09-13T08:16:04.864Z,8.90
2022-09-13T08:18:33.480Z,8.25
2022-09-13T08:21:03.043Z,8.32
2022-09-13T08:23:31.201Z,8.95
2022-09-13T08:26:02.807Z,9.27
2022-09-13T08:28:32.241Z,8.90
2022-09-13T08:31:04.991Z,7.90
2022-09-13T08:33:33.418Z,8.75
2022-09-13T08:36:03.390Z,7.80
2022-09-13T08:38:31.570Z,9.27
2022-09-13T08:41:01.324Z,9.30
2022-09-13T08:43:45.387Z,9.25
2022-09-13T08:46:22.919Z,10.60
2022-09-13T08:48:54.553Z,9.68
2022-09-13T08:51:33.010Z,10.82
2022-09-13T08:54:03.009Z,10.05
2022-09-13T08:56:39.555Z,10.20
2022-09-13T08:59:28.184Z,8.48
2022-09-13T09:02:11.075Z,10.27
2022-09-13T09:04:46.322Z,10.18
2022-09-13T09:07:20.011Z,10.50
2022-09-13T09:09:53.207Z,10.20
2022-09-13T09:12:29.056Z,12.30
2022-09-13T09:15:03.223Z,11.32
2022-09-13T09:17:42.940Z,11.90
2022-09-13T09:20:23.829Z,12.98
2022-09-13T09:22:55.219Z,14.25
2022-09-13T09:25:26.148Z,14.90
2022-09-13T09:27:54.715Z,14.77
2022-09-13T09:30:22.544Z,14.93
2022-09-13T09:33:20.610Z,15.43
2022-09-13T09:35:58.748Z,14.93
2022-09-13T09:38:42.726Z,12.50
2022-09-13T09:41:22.734Z,14.95
2022-09-13T09:43:55.630Z,14.32
2022-09-13T09:46:27.191Z,11.15
2022-09-13T09:48:57.886Z,12.40
2022-09-13T09:51:29.086Z,14.60
2022-09-13T09:54:05.829Z,13.02
2022-09-13T09:56:36.301Z,14.70
2022-09-13T09:59:04.678Z,12.50
2022-09-13T10:01:34.018Z,14.25
2022-09-13T10:04:08.611Z,12.35
2022-09-13T10:06:38.102Z,14.32
2022-09-13T10:09:16.543Z,13.68
2022-09-13T10:11:47.592Z,14.07
2022-09-13T10:14:36.988Z,11.60
2022-09-13T10:17:07.693Z,15.57
2022-09-13T10:19:36.349Z,14.00
2022-09-13T10:22:05.955Z,16.55
2022-09-13T10:24:35.015Z,16.73
2022-09-13T10:27:04.213Z,18.45
2022-09-13T10:29:34.014Z,16.67
2022-09-13T10:32:12.911Z,20.02
2022-09-13T10:34:46.939Z,17.60
2022-09-13T10:37:19.893Z,16.70
2022-09-13T10:39:57.267Z,16.77
2022-09-13T10:42:28.006Z,17.70
2022-09-13T10:44:58.154Z,17.00
2022-09-13T10:47:28.868Z,14.40
2022-09-13T10:49:59.326Z,10.65
2022-09-13T10:52:33.485Z,13.45
2022-09-13T10:55:29.396Z,16.05
2022-09-13T10:58:14.566Z,12.65
2022-09-13T11:00:55.973Z,13.05
2022-09-13T11:03:39.552Z,11.00
2022-09-13T11:06:17.027Z,12.30
2022-09-13T11:08:53.590Z,10.90
2022-09-13T11:11:30.710Z,11.10
2022-09-13T11:14:17.616Z,12.75
2022-09-13T11:17:00.108Z,11.00
2022-09-13T11:20:21.314Z,8.88
2022-09-13T11:23:05.262Z,9.68
2022-09-13T11:25:53.805Z,11.13
2022-09-13T11:28:29.498Z,11.85
2022-09-13T11:31:15.232Z,13.85
2022-09-13T11:33:58.721Z,12.40
2022-09-13T11:36:48.362Z,12.77
2022-09-13T11:39:29.133Z,12.20
2022-09-13T11:42:06.691Z,11.88
2022-09-13T11:45:10.546Z,10.55
2022-09-13T11:47:49.921Z,13.50
2022-09-13T11:50:27.281Z,11.70
2022-09-13T11:53:12.116Z,10.10
2022-09-13T11:55:45.538Z,13.80
2022-09-13T11:58:17.397Z,12.30
2022-09-13T12:00:50.989Z,12.90
2022-09-13T12:03:26.152Z,16.27
2022-09-13T12:05:57.853Z,16.30
2022-09-13T12:08:30.575Z,17.20
2022-09-13T12:11:03.686Z,15.95
2022-09-13T12:13:33.787Z,14.07
2022-09-13T12:16:06.740Z,14.13
2022-09-13T12:18:38.830Z,16.90
2022-09-13T12:23:43.621Z,12.20
2022-09-13T12:26:16.906Z,14.27
2022-09-13T12:28:49.383Z,11.50
2022-09-13T12:31:23.007Z,11.52
2022-09-13T12:33:50.987Z,10.95
2022-09-13T12:36:54.865Z,10.25
2022-09-13T12:39:46.063Z,12.57
2022-09-13T12:42:41.617Z,10.70
2022-09-13T12:45:30.075Z,12.00
2022-09-13T12:48:23.215Z,13.68
2022-09-13T12:51:08.298Z,10.98
2022-09-13T12:53:53.702Z,13.50
2022-09-13T12:56:36.867Z,11.88
2022-09-13T12:59:20.041Z,12.82
2022-09-13T13:01:50.236Z,13.48
2022-09-13T13:04:23.206Z,13.60
2022-09-13T13:06:54.709Z,11.90
2022-09-13T13:09:29.674Z,12.07
2022-09-13T13:11:59.668Z,10.07
2022-09-13T13:14:30.823Z,12.55
2022-09-13T13:17:31.956Z,10.70
2022-09-13T13:20:01.123Z,10.80
2022-09-13T13:22:51.304Z,8.85
2022-09-13T13:25:33.394Z,8.90
2022-09-13T13:28:01.200Z,9.43
2022-09-13T13:30:51.555Z,10.18
2022-09-13T13:33:27.083Z,8.23
2022-09-13T13:35:56.645Z,6.47
2022-09-13T13:38:51.203Z,9.35
2022-09-13T13:41:39.767Z,8.38
2022-09-13T13:44:44.647Z,10.38
2022-09-13T13:47:54.799Z,9.95
2022-09-13T13:50:22.590Z,10.13
2022-09-13T13:53:03.178Z,9.02
2022-09-13T13:55:44.115Z,9.63
2022-09-13T13:58:25.725Z,8.40
2022-09-13T14:00:55.978Z,10.50
2022-09-13T14:03:29.722Z,10.38
2022-09-13T14:06:08.289Z,9.68
2022-09-13T14:08:47.033Z,8.77
2022-09-13T14:11:26.141Z,9.38
2022-09-13T14:14:09.329Z,9.38
2022-09-13T14:16:58.239Z,9.52
2022-09-13T14:19:31.238Z,9.15
2022-09-13T14:22:15.733Z,10.30
2022-09-13T14:24:48.653Z,9.77
2022-09-13T14:27:20.278Z,7.18
2022-09-13T14:29:50.090Z,8.02
2022-09-13T14:32:22.025Z,8.27
2022-09-13T14:34:56.225Z,8.57
2022-09-13T14:37:28.410Z,9.02
2022-09-13T14:39:59.500Z,10.48
2022-09-13T14:42:27.989Z,10.43
2022-09-13T14:44:56.006Z,7.13
2022-09-13T14:47:31.127Z,7.47
2022-09-13T14:50:04.766Z,9.40
2022-09-13T14:52:37.250Z,9.23
2022-09-13T14:55:14.120Z,8.00
2022-09-13T14:57:47.774Z,8.55
2022-09-13T15:00:19.442Z,9.82
2022-09-13T15:02:51.026Z,10.18
2022-09-13T15:05:20.982Z,8.65
2022-09-13T15:07:48.769Z,10.40
2022-09-13T15:10:26.836Z,11.85
2022-09-13T15:12:57.230Z,7.97
2022-09-13T15:15:37.514Z,8.70
2022-09-13T15:18:07.669Z,9.02
2022-09-13T15:20:51.618Z,9.60
2022-09-13T15:23:22.182Z,8.98
2022-09-13T15:25:54.899Z,10.52
2022-09-13T15:28:26.358Z,9.25
2022-09-13T15:30:54.562Z,10.57
2022-09-13T15:33:28.826Z,10.88
2022-09-13T15:36:30.987Z,11.48
2022-09-13T15:39:05.026Z,11.63
2022-09-13T15:41:36.038Z,9.80
2022-09-13T15:44:05.882Z,9.65
2022-09-13T15:46:35.858Z,7.75
2022-09-13T15:49:06.832Z,8.93
2022-09-13T15:51:39.068Z,10.23
2022-09-13T15:54:13.004Z,8.40
2022-09-13T15:56:44.410Z,10.30
2022-09-13T15:59:14.376Z,9.10
2022-09-13T16:01:42.457Z,8.75
2022-09-13T16:04:10.825Z,9.88
2022-09-13T16:06:39.054Z,10.23
2022-09-13T16:09:17.216Z,9.90
2022-09-13T16:11:46.518Z,10.35
2022-09-13T16:14:14.216Z,9.05
2022-09-13T16:16:41.954Z,9.73
2022-09-13T16:19:15.755Z,9.73
2022-09-13T16:21:43.507Z,10.30
2022-09-13T16:24:11.367Z,10.05
2022-09-13T16:26:39.538Z,9.00
2022-09-13T16:29:08.575Z,7.90
2022-09-13T16:31:36.607Z,7.50
2022-09-13T16:34:05.217Z,8.00
2022-09-13T16:36:34.102Z,8.13
2022-09-13T16:39:02.483Z,7.45
2022-09-13T16:41:30.283Z,6.53
2022-09-13T16:43:58.393Z,6.78
2022-09-13T16:46:28.510Z,7.22
2022-09-13T16:48:57.311Z,6.82
2022-09-13T16:51:25.626Z,6.50
2022-09-13T16:53:54.456Z,6.40
2022-09-13T16:56:23.787Z,6.30
2022-09-13T16:58:52.579Z,6.90
2022-09-13T17:01:23.613Z,6.40
2022-09-13T17:03:54.952Z,6.60
2022-09-13T17:06:24.247Z,6.13
2022-09-13T17:08:53.935Z,6.53
2022-09-13T17:11:23.726Z,6.30
2022-09-13T17:13:51.958Z,6.40
2022-09-13T17:16:28.542Z,6.57
2022-09-13T17:18:58.967Z,6.13
2022-09-13T17:21:28.183Z,6.50
2022-09-13T17:23:56.139Z,6.03
2022-09-13T17:26:24.292Z,5.50
2022-09-13T17:28:52.564Z,4.93
2022-09-13T17:31:20.602Z,5.50
2022-09-13T17:33:48.429Z,4.60
2022-09-13T17:36:17.856Z,5.38
2022-09-13T17:38:45.655Z,4.20
2022-09-13T17:41:15.409Z,4.50
2022-09-13T17:43:44.375Z,4.43
2022-09-13T17:46:13.990Z,4.38
2022-09-13T17:48:42.447Z,4.82
2022-09-13T17:51:13.742Z,4.65
2022-09-13T17:53:45.303Z,4.47
2022-09-13T17:56:13.536Z,4.65
2022-09-13T17:58:41.147Z,3.95
2022-09-13T18:01:10.844Z,3.72
2022-09-13T18:03:39.243Z,3.95
2022-09-13T18:06:09.084Z,3.70
2022-09-13T18:08:38.677Z,3.60
2022-09-13T18:11:13.972Z,3.60
2022-09-13T18:13:42.826Z,3.38
2022-09-13T18:16:17.168Z,3.53
2022-09-13T18:18:48.380Z,2.90
2022-09-13T18:21:18.568Z,3.00
2022-09-13T18:23:47.226Z,2.90
2022-09-13T18:26:18.480Z,2.67
2022-09-13T18:28:46.832Z,2.53
2022-09-13T18:31:16.368Z,2.28
2022-09-13T18:33:44.791Z,2.30
2022-09-13T18:36:14.250Z,3.10
2022-09-13T18:38:43.776Z,2.75
2022-09-13T18:41:13.592Z,2.75
2022-09-13T18:43:44.371Z,2.30
2022-09-13T18:46:13.805Z,4.20
2022-09-13T18:48:44.076Z,2.38
2022-09-13T18:51:13.627Z,2.30
2022-09-13T18:53:41.564Z,2.30
2022-09-13T18:56:11.263Z,2.13
2022-09-13T18:58:40.744Z,2.33
2022-09-13T19:01:12.542Z,2.28
2022-09-13T19:03:41.484Z,2.22
2022-09-13T19:06:13.621Z,2.22
2022-09-13T19:08:41.888Z,1.92
2022-09-13T19:11:29.116Z,2.00
2022-09-13T19:13:58.189Z,1.92
2022-09-13T19:16:27.445Z,1.50
2022-09-13T19:18:56.788Z,1.70
2022-09-13T19:21:27.352Z,1.40
2022-09-13T19:24:00.063Z,1.52
2022-09-13T19:26:31.857Z,2.83
2022-09-13T19:29:04.434Z,1.58
2022-09-13T19:31:35.243Z,1.52
2022-09-13T19:34:03.778Z,1.55
2022-09-13T19:36:34.266Z,1.30
2022-09-13T19:39:02.547Z,1.30
2022-09-13T19:41:31.215Z,1.48
2022-09-13T19:44:00.747Z,1.30
2022-09-13T19:46:31.591Z,1.20
2022-09-13T19:49:02.257Z,1.40
2022-09-13T19:51:33.073Z,1.30
2022-09-13T19:54:02.129Z,1.15
2022-09-13T19:56:32.595Z,1.40
2022-09-13T19:59:01.145Z,1.52
2022-09-13T20:01:34.227Z,1.40
2022-09-13T20:04:06.229Z,1.38
2022-09-13T20:06:36.258Z,1.45
2022-09-13T20:09:04.984Z,1.50
2022-09-13T20:11:34.594Z,1.40
2022-09-13T20:14:04.011Z,1.30
2022-09-13T20:16:33.987Z,1.30
2022-09-13T20:19:13.742Z,1.58
2022-09-13T20:21:51.841Z,1.40
2022-09-13T20:24:20.131Z,1.30
2022-09-13T20:26:49.310Z,1.20
2022-09-13T20:29:16.943Z,1.20
2022-09-13T20:31:44.698Z,1.40
2022-09-13T20:34:15.743Z,1.45
2022-09-13T20:36:47.029Z,1.20
2022-09-13T20:39:16.293Z,1.40
2022-09-13T20:41:45.122Z,1.50
2022-09-13T20:44:12.858Z,1.48
2022-09-13T20:46:42.637Z,1.30
2022-09-13T20:49:10.367Z,1.40
2022-09-13T20:51:39.856Z,1.38
2022-09-13T20:54:08.346Z,1.60
2022-09-13T20:56:36.769Z,1.50
2022-09-13T20:59:05.499Z,1.25
2022-09-13T21:01:34.215Z,1.23
2022-09-13T21:04:02.903Z,1.30
2022-09-13T21:06:37.418Z,1.67
2022-09-13T21:09:06.393Z,1.48
2022-09-13T21:11:35.868Z,1.65
2022-09-13T21:14:05.724Z,1.35
2022-09-13T21:16:35.212Z,1.40
2022-09-13T21:19:03.328Z,1.40
2022-09-13T21:21:34.548Z,1.48
2022-09-13T21:24:04.288Z,1.73
2022-09-13T21:26:33.982Z,1.50
2022-09-13T21:29:01.914Z,1.58
2022-09-13T21:31:31.345Z,1.20
2022-09-13T21:34:01.404Z,1.45
2022-09-13T21:36:30.339Z,1.60
2022-09-13T21:38:58.331Z,1.60
2022-09-13T21:41:27.649Z,1.65
2022-09-13T21:43:56.773Z,1.50
2022-09-13T21:46:27.452Z,1.73
2022-09-13T21:48:57.128Z,1.25
2022-09-13T21:51:26.745Z,1.63
2022-09-13T21:53:58.926Z,1.30
2022-09-13T21:56:29.259Z,1.70
2022-09-13T21:58:59.567Z,1.50
2022-09-13T22:01:31.581Z,1.58
2022-09-13T22:04:00.416Z,1.30
2022-09-13T22:06:33.532Z,1.25
2022-09-13T22:09:03.515Z,1.75
2022-09-13T22:11:33.714Z,1.58
2022-09-13T22:14:03.040Z,1.40
2022-09-13T22:16:32.510Z,1.45
2022-09-13T22:19:07.972Z,1.70
2022-09-13T22:21:38.968Z,1.67
2022-09-13T22:24:08.407Z,1.27
2022-09-13T22:26:39.432Z,1.63
2022-09-13T22:29:09.685Z,1.55
2022-09-13T22:31:39.243Z,1.38
2022-09-13T22:34:07.951Z,1.63
2022-09-13T22:36:35.850Z,1.55
2022-09-13T22:39:03.495Z,1.58
2022-09-13T22:41:32.672Z,1.30
2022-09-13T22:44:01.752Z,1.50
2022-09-13T22:46:33.393Z,1.60
2022-09-13T22:49:02.008Z,1.73
2022-09-13T22:51:30.262Z,1.24
2022-09-13T22:53:59.863Z,1.25
2022-09-13T22:56:32.008Z,1.90
2022-09-13T22:59:01.544Z,1.67
2022-09-13T23:01:31.751Z,1.50
2022-09-13T23:04:01.138Z,1.60
2022-09-13T23:06:29.892Z,1.70
2022-09-13T23:09:00.511Z,1.60
2022-09-13T23:11:30.547Z,1.60
2022-09-13T23:14:01.386Z,1.55
2022-09-13T23:16:33.248Z,1.75
2022-09-13T23:19:01.338Z,1.70
2022-09-13T23:21:31.087Z,1.73
2022-09-13T23:23:59.638Z,1.80
2022-09-13T23:26:27.558Z,1.33
2022-09-13T23:28:56.940Z,1.80
2022-09-13T23:31:26.899Z,2.00
2022-09-13T23:33:58.383Z,1.70
2022-09-13T23:36:27.934Z,1.67
2022-09-13T23:38:57.462Z,1.52
2022-09-13T23:41:26.370Z,1.85
2022-09-13T23:43:54.351Z,1.90
2022-09-13T23:46:22.532Z,1.83
2022-09-13T23:48:50.483Z,1.98
2022-09-13T23:51:23.050Z,1.70
2022-09-13T23:53:52.072Z,1.58
2022-09-13T23:56:20.694Z,1.60
2022-09-13T23:58:48.303Z,1.77
